Time;durP1;ratioP1;P1;durP2;ratioP2;P2;SDS_P1;SDS_P2;PMS_P1;PMS_P2;Temp;Humidity;BMP_temperature;BMP_pressure;BME280_temperature;BME280_humidity;BME280_pressure;Samples;Min_cycle;Max_cycle;Signal;HPM_P1;HPM_P2
2023/08/01 00:01:34;;;;;;;1999.90;999.90;;;18.40;99.90;;;;;;4971538;28;20440;-70
2023/08/01 00:04:01;;;;;;;1999.90;999.90;;;18.40;99.90;;;;;;4979348;28;20440;-70
2023/08/01 00:06:28;;;;;;;1999.90;999.90;;;18.20;99.90;;;;;;4966689;28;20436;-71
2023/08/01 00:08:55;;;;;;;1999.90;999.90;;;18.20;99.90;;;;;;4969931;28;20447;-70
2023/08/01 00:11:21;;;;;;;1999.90;999.90;;;18.20;99.90;;;;;;4971394;28;20444;-71
2023/08/01 00:13:49;;;;;;;1999.90;999.90;;;18.30;99.90;;;;;;4970488;28;20443;-70
2023/08/01 00:16:16;;;;;;;1999.90;999.90;;;18.80;99.90;;;;;;4969028;28;20454;-70
2023/08/01 00:18:43;;;;;;;1999.90;999.90;;;18.40;99.90;;;;;;4969861;28;20443;-70
2023/08/01 00:21:11;;;;;;;1999.90;999.90;;;18.50;99.90;;;;;;4971126;28;20506;-70
2023/08/01 00:23:38;;;;;;;1999.90;999.90;;;18.50;99.90;;;;;;4971989;28;20483;-70
2023/08/01 00:26:04;;;;;;;1999.90;999.90;;;18.40;99.90;;;;;;4970432;28;20920;-71
2023/08/01 00:28:31;;;;;;;1999.90;999.90;;;18.30;99.90;;;;;;4970691;28;20777;-70
2023/08/01 00:31:08;;;;;;;1999.90;999.90;;;18.40;99.90;;;;;;4971317;28;20485;-71
2023/08/01 00:33:35;;;;;;;1999.90;999.90;;;18.30;99.90;;;;;;4970048;28;20436;-70
2023/08/01 00:36:02;;;;;;;1999.90;999.90;;;18.50;99.90;;;;;;4971135;28;20432;-70
2023/08/01 00:38:29;;;;;;;1999.90;999.90;;;18.70;99.90;;;;;;4970828;28;20435;-71
2023/08/01 00:40:56;;;;;;;1999.90;999.90;;;18.50;99.90;;;;;;4971566;28;20436;-70
2023/08/01 00:43:23;;;;;;;1999.90;999.90;;;18.60;99.90;;;;;;4972241;28;20440;-73
2023/08/01 00:45:50;;;;;;;1999.90;999.90;;;18.50;99.90;;;;;;4972031;28;20436;-70
2023/08/01 00:48:19;;;;;;;1999.90;999.90;;;18.50;99.90;;;;;;4974357;28;20438;-70
2023/08/01 00:50:46;;;;;;;1999.90;999.90;;;18.40;99.90;;;;;;4974985;28;20458;-70
2023/08/01 00:53:13;;;;;;;1999.90;999.90;;;18.50;99.90;;;;;;4972966;28;20448;-70
2023/08/01 00:55:40;;;;;;;1999.90;999.90;;;18.50;99.90;;;;;;4974952;28;20792;-70
2023/08/01 00:58:07;;;;;;;1999.90;999.90;;;18.50;99.90;;;;;;4974426;28;20435;-70
2023/08/01 01:00:33;;;;;;;1999.90;999.90;;;18.40;99.90;;;;;;4973919;28;20476;-70
2023/08/01 01:03:00;;;;;;;1999.90;999.90;;;18.40;99.90;;;;;;4968408;28;20444;-70
2023/08/01 01:05:35;;;;;;;1999.90;999.90;;;18.50;99.90;;;;;;4973062;28;20440;-70
2023/08/01 01:08:04;;;;;;;1999.90;999.90;;;18.50;99.90;;;;;;4973170;28;20434;-70
2023/08/01 01:10:31;;;;;;;1999.90;999.90;;;18.30;99.90;;;;;;4979813;28;20765;-71
2023/08/01 01:12:58;;;;;;;1999.90;999.90;;;18.30;99.90;;;;;;4966787;28;20515;-69
2023/08/01 01:15:24;;;;;;;1999.90;999.90;;;18.30;99.90;;;;;;4972899;28;20439;-70
2023/08/01 01:17:51;;;;;;;1999.90;999.90;;;18.30;99.90;;;;;;4973890;28;20438;-69
2023/08/01 01:20:23;;;;;;;1999.90;999.90;;;18.30;99.90;;;;;;4980228;28;20434;-69
2023/08/01 01:22:53;;;;;;;1999.90;999.90;;;18.40;99.90;;;;;;4972863;28;20928;-69
2023/08/01 01:25:21;;;;;;;1999.90;999.90;;;18.30;99.90;;;;;;4972942;28;20436;-71
2023/08/01 01:27:49;;;;;;;1999.90;999.90;;;18.40;99.90;;;;;;4973304;28;20436;-70
2023/08/01 01:30:16;;;;;;;1999.90;999.90;;;18.40;99.90;;;;;;4973584;28;20440;-70
2023/08/01 01:32:43;;;;;;;1999.90;999.90;;;18.90;99.90;;;;;;4973288;28;20417;-68
2023/08/01 01:35:10;;;;;;;1999.90;999.90;;;18.50;99.90;;;;;;4973992;28;20432;-70
2023/08/01 01:37:37;;;;;;;1999.90;999.90;;;18.60;99.90;;;;;;4973666;28;20951;-69
2023/08/01 01:40:06;;;;;;;1999.90;999.90;;;18.50;99.90;;;;;;4978901;28;20435;-69
2023/08/01 01:42:33;;;;;;;1999.90;999.90;;;18.50;99.90;;;;;;4971509;28;20427;-69
2023/08/01 01:45:00;;;;;;;1999.90;999.90;;;18.50;99.90;;;;;;4973402;28;20438;-70
2023/08/01 01:47:26;;;;;;;1999.90;999.90;;;18.50;99.90;;;;;;4974008;28;20439;-70
2023/08/01 01:49:53;;;;;;;1999.90;999.90;;;18.60;99.90;;;;;;4973211;28;20780;-70
2023/08/01 01:52:20;;;;;;;1999.90;999.90;;;18.60;99.90;;;;;;4972552;28;20440;-69
2023/08/01 01:54:46;;;;;;;1999.90;999.90;;;18.60;99.90;;;;;;4973217;28;20436;-70
2023/08/01 01:57:14;;;;;;;1999.90;999.90;;;18.50;99.90;;;;;;4980355;28;20924;-70
2023/08/01 01:59:41;;;;;;;1999.90;999.90;;;18.50;99.90;;;;;;4973483;28;20440;-70
2023/08/01 02:02:08;;;;;;;1999.90;999.90;;;18.40;99.90;;;;;;4972324;28;20440;-70
2023/08/01 02:04:35;;;;;;;1999.90;999.90;;;18.50;99.90;;;;;;4972711;28;20435;-70
2023/08/01 02:07:02;;;;;;;1999.90;999.90;;;18.50;99.90;;;;;;4973116;28;20432;-69
2023/08/01 02:09:29;;;;;;;1999.90;999.90;;;18.50;99.90;;;;;;4972665;28;20431;-70
2023/08/01 02:11:56;;;;;;;1999.90;999.90;;;18.50;99.90;;;;;;4972769;28;20447;-69
2023/08/01 02:14:24;;;;;;;1999.90;999.90;;;18.50;99.90;;;;;;4972855;28;20972;-71
2023/08/01 02:16:51;;;;;;;1999.90;999.90;;;18.50;99.90;;;;;;4973090;28;20431;-69
2023/08/01 02:19:17;;;;;;;1999.90;999.90;;;18.40;99.90;;;;;;4964674;28;20431;-70
2023/08/01 02:21:44;;;;;;;1999.90;999.90;;;18.40;99.90;;;;;;4972899;28;20443;-70
2023/08/01 02:24:11;;;;;;;1999.90;999.90;;;18.60;99.90;;;;;;4972232;28;20435;-70
2023/08/01 02:26:38;;;;;;;1999.90;999.90;;;18.60;99.90;;;;;;4972299;28;20443;-69
2023/08/01 02:29:04;;;;;;;1999.90;999.90;;;18.60;99.90;;;;;;4971966;28;20434;-70
2023/08/01 02:31:32;;;;;;;1999.90;999.90;;;18.60;99.90;;;;;;4972546;28;20440;-70
2023/08/01 02:33:59;;;;;;;1999.90;999.90;;;18.70;99.90;;;;;;4971404;28;20436;-71
2023/08/01 02:36:26;;;;;;;1999.90;999.90;;;18.70;99.90;;;;;;4972402;28;20432;-70
2023/08/01 02:38:53;;;;;;;1999.90;999.90;;;18.80;99.90;;;;;;4972102;28;20439;-71
2023/08/01 02:41:19;;;;;;;1999.90;999.90;;;18.70;99.90;;;;;;4972528;28;20436;-70
2023/08/01 02:43:46;;;;;;;1999.90;999.90;;;18.80;99.90;;;;;;4972180;28;20435;-71
2023/08/01 02:46:13;;;;;;;1999.90;999.90;;;18.90;99.90;;;;;;4972398;28;20447;-69
2023/08/01 02:48:41;;;;;;;1999.90;999.90;;;18.90;99.90;;;;;;4972186;28;20431;-70
2023/08/01 02:51:09;;;;;;;1999.90;999.90;;;19.00;99.90;;;;;;4972015;28;20435;-71
2023/08/01 02:53:35;;;;;;;1999.90;999.90;;;18.90;99.90;;;;;;4971766;28;20436;-70
2023/08/01 02:56:03;;;;;;;1999.90;999.90;;;18.80;99.90;;;;;;4971338;28;20904;-71
2023/08/01 02:58:29;;;;;;;1999.90;999.90;;;18.80;99.90;;;;;;4972004;28;20431;-70
2023/08/01 03:00:56;;;;;;;1999.90;999.90;;;18.90;99.90;;;;;;4971130;28;20447;-70
2023/08/01 03:03:23;;;;;;;1999.90;999.90;;;19.00;99.90;;;;;;4971340;28;20428;-71
2023/08/01 03:05:51;;;;;;;1999.90;999.90;;;19.00;99.90;;;;;;4968140;28;20428;-69
2023/08/01 03:08:18;;;;;;;1999.90;999.90;;;19.20;99.90;;;;;;4965814;28;20796;-70
2023/08/01 03:10:45;;;;;;;1999.90;999.90;;;19.10;99.90;;;;;;4971385;28;20482;-70
2023/08/01 03:13:12;;;;;;;1999.90;999.90;;;19.00;99.90;;;;;;4970878;28;20436;-70
2023/08/01 03:15:39;;;;;;;1999.90;999.90;;;19.10;99.90;;;;;;4971541;28;20447;-69
2023/08/01 03:18:05;;;;;;;1999.90;999.90;;;19.00;99.90;;;;;;4971267;28;20936;-71
2023/08/01 03:20:32;;;;;;;1999.90;999.90;;;19.00;99.90;;;;;;4971704;28;20436;-70
2023/08/01 03:23:00;;;;;;;1999.90;999.90;;;18.80;99.90;;;;;;4971163;28;20436;-70
2023/08/01 03:25:27;;;;;;;1999.90;999.90;;;18.80;99.90;;;;;;4971160;28;20432;-70
2023/08/01 03:27:54;;;;;;;1999.90;999.90;;;18.50;99.90;;;;;;4970888;28;20439;-70
2023/08/01 03:30:21;;;;;;;1999.90;999.90;;;18.60;99.90;;;;;;4971280;28;20486;-69
2023/08/01 03:32:48;;;;;;;1999.90;999.90;;;18.60;99.90;;;;;;4970553;28;20431;-70
2023/08/01 03:35:15;;;;;;;1999.90;999.90;;;18.40;99.90;;;;;;4970374;28;20444;-71
2023/08/01 03:37:42;;;;;;;1999.90;999.90;;;18.30;99.90;;;;;;4971448;28;20443;-70
2023/08/01 03:40:10;;;;;;;1999.90;999.90;;;18.40;99.90;;;;;;4971387;28;20432;-71
2023/08/01 03:42:38;;;;;;;1999.90;999.90;;;18.50;99.90;;;;;;4970549;28;20442;-70
2023/08/01 03:45:06;;;;;;;1999.90;999.90;;;18.70;99.90;;;;;;4970753;28;20591;-70
2023/08/01 03:47:33;;;;;;;1999.90;999.90;;;18.60;99.90;;;;;;4970970;28;20807;-70
2023/08/01 03:49:59;;;;;;;1999.90;999.90;;;18.60;99.90;;;;;;4970063;28;20439;-71
2023/08/01 03:52:26;;;;;;;1999.90;999.90;;;18.50;99.90;;;;;;4970045;28;20448;-70
2023/08/01 03:54:55;;;;;;;1999.90;999.90;;;18.40;99.90;;;;;;4970780;28;20458;-71
2023/08/01 03:57:23;;;;;;;1999.90;999.90;;;18.40;99.90;;;;;;4968565;28;20435;-71
2023/08/01 03:59:50;;;;;;;1999.90;999.90;;;18.40;99.90;;;;;;4970449;28;20447;-71
2023/08/01 04:02:17;;;;;;;1999.90;999.90;;;18.40;99.90;;;;;;4971048;28;20443;-69
2023/08/01 04:04:43;;;;;;;1999.90;999.90;;;18.30;99.90;;;;;;4966758;28;20435;-70
2023/08/01 04:07:10;;;;;;;1999.90;999.90;;;18.20;99.90;;;;;;4970545;28;20439;-71
2023/08/01 04:09:38;;;;;;;1999.90;999.90;;;18.10;99.90;;;;;;4970266;28;20432;-70
2023/08/01 04:12:06;;;;;;;1999.90;999.90;;;18.00;99.90;;;;;;4971245;28;20522;-70
2023/08/01 04:14:34;;;;;;;1999.90;999.90;;;18.00;99.90;;;;;;4969850;28;20907;-70
2023/08/01 04:17:01;;;;;;;1999.90;999.90;;;18.10;99.90;;;;;;4970907;28;20440;-70
2023/08/01 04:19:28;;;;;;;1999.90;999.90;;;18.20;99.90;;;;;;4970393;28;20880;-70
2023/08/01 04:21:55;;;;;;;1999.90;999.90;;;18.40;99.90;;;;;;5010956;23;20940;-70
2023/08/01 04:24:24;;;;;;;1999.90;999.90;;;18.40;99.90;;;;;;4969158;28;20442;-71
2023/08/01 04:26:51;;;;;;;1999.90;999.90;;;18.40;99.90;;;;;;4970885;28;20432;-70
2023/08/01 04:29:18;;;;;;;1999.90;999.90;;;18.30;99.90;;;;;;4970404;28;20452;-70
2023/08/01 04:31:46;;;;;;;1999.90;999.90;;;18.30;99.90;;;;;;4958266;28;20810;-71
2023/08/01 04:34:13;;;;;;;1999.90;999.90;;;18.20;99.90;;;;;;4950313;28;20437;-70
2023/08/01 04:36:40;;;;;;;1999.90;999.90;;;18.10;99.90;;;;;;4951672;29;20436;-71
2023/08/01 04:39:06;;;;;;;1999.90;999.90;;;18.00;99.90;;;;;;4951123;29;20451;-71
2023/08/01 04:41:33;;;;;;;1999.90;999.90;;;18.00;99.90;;;;;;4951060;29;20430;-70
2023/08/01 04:44:00;;;;;;;1999.90;999.90;;;18.00;99.90;;;;;;4950707;28;20438;-70
2023/08/01 04:46:26;;;;;;;1999.90;999.90;;;18.00;99.90;;;;;;4951693;29;20440;-71
2023/08/01 04:48:54;;;;;;;1999.90;999.90;;;18.00;99.90;;;;;;4945777;28;20430;-70
2023/08/01 04:51:21;;;;;;;1999.90;999.90;;;18.10;99.90;;;;;;4952350;28;20444;-71
2023/08/01 04:53:48;;;;;;;1999.90;999.90;;;18.00;99.90;;;;;;4950405;28;20433;-70
2023/08/01 04:56:15;;;;;;;1999.90;999.90;;;18.00;99.90;;;;;;4957404;28;20483;-70
2023/08/01 04:58:41;;;;;;;1999.90;999.90;;;18.00;99.90;;;;;;4951337;29;20441;-70
2023/08/01 05:01:08;;;;;;;1999.90;999.90;;;18.00;99.90;;;;;;4955078;28;20931;-70
2023/08/01 05:03:35;;;;;;;1999.90;999.90;;;18.10;99.90;;;;;;4950503;29;20438;-72
2023/08/01 05:06:03;;;;;;;1999.90;999.90;;;18.00;99.90;;;;;;4950944;28;20445;-71
2023/08/01 05:08:30;;;;;;;1999.90;999.90;;;18.10;99.90;;;;;;4951375;29;20440;-72
2023/08/01 05:10:56;;;;;;;1999.90;999.90;;;18.00;99.90;;;;;;4956582;28;20542;-71
2023/08/01 05:13:23;;;;;;;1999.90;999.90;;;18.10;99.90;;;;;;4950974;28;20539;-70
2023/08/01 05:15:50;;;;;;;1999.90;999.90;;;18.10;99.90;;;;;;4955033;28;20433;-70
2023/08/01 05:18:17;;;;;;;1999.90;999.90;;;18.10;99.90;;;;;;4950944;29;20460;-70
2023/08/01 05:20:44;;;;;;;1999.90;999.90;;;18.10;99.90;;;;;;4950825;28;20436;-70
2023/08/01 05:23:12;;;;;;;1999.90;999.90;;;18.20;99.90;;;;;;4950224;28;20449;-71
2023/08/01 05:25:39;;;;;;;1999.90;999.90;;;18.50;99.90;;;;;;4944330;29;20426;-70
2023/08/01 05:28:06;;;;;;;1999.90;999.90;;;18.50;99.90;;;;;;4950835;29;21103;-70
2023/08/01 05:30:32;;;;;;;1999.90;999.90;;;18.70;99.90;;;;;;4953077;28;20461;-70
2023/08/01 05:33:00;;;;;;;1999.90;999.90;;;18.70;99.90;;;;;;4952885;28;20474;-70
2023/08/01 05:35:26;;;;;;;1999.90;999.90;;;18.60;99.90;;;;;;4954704;29;20441;-70
2023/08/01 05:37:53;;;;;;;1999.90;999.90;;;18.60;99.90;;;;;;4954321;29;20456;-70
2023/08/01 05:40:21;;;;;;;1999.90;999.90;;;18.70;99.90;;;;;;4959568;28;20432;-70
2023/08/01 05:42:48;;;;;;;1999.90;999.90;;;18.70;99.90;;;;;;4960830;29;20838;-71
2023/08/01 05:45:15;;;;;;;1999.90;999.90;;;18.70;99.90;;;;;;4954637;29;20440;-71
2023/08/01 05:47:42;;;;;;;1999.90;999.90;;;18.80;99.90;;;;;;4954488;29;20913;-70
2023/08/01 05:50:09;;;;;;;1999.90;999.90;;;18.90;99.90;;;;;;4960132;28;20439;-71
2023/08/01 05:52:37;;;;;;;1999.90;999.90;;;18.90;99.90;;;;;;4954493;28;20453;-71
2023/08/01 05:55:04;;;;;;;1999.90;999.90;;;18.90;99.90;;;;;;4953040;28;20452;-70
2023/08/01 05:57:32;;;;;;;1999.90;999.90;;;19.00;99.90;;;;;;4955045;28;20439;-70
2023/08/01 05:59:59;;;;;;;1999.90;999.90;;;19.00;99.90;;;;;;4954216;29;20425;-70
2023/08/01 06:02:26;;;;;;;1999.90;999.90;;;19.00;99.90;;;;;;4940806;28;20806;-70
2023/08/01 06:04:53;;;;;;;1999.90;999.90;;;19.10;99.90;;;;;;4954064;29;20494;-70
2023/08/01 06:07:22;;;;;;;1999.90;999.90;;;19.10;99.90;;;;;;4952937;28;20978;-69
2023/08/01 06:09:50;;;;;;;1999.90;999.90;;;19.20;99.90;;;;;;4958459;28;20499;-70
2023/08/01 06:12:17;;;;;;;1999.90;999.90;;;19.10;99.90;;;;;;4953271;28;20529;-70
2023/08/01 06:14:45;;;;;;;1999.90;999.90;;;19.30;99.90;;;;;;4953089;29;20929;-70
2023/08/01 06:17:12;;;;;;;1999.90;999.90;;;19.40;99.90;;;;;;4952247;28;20447;-70
2023/08/01 06:19:38;;;;;;;1999.90;999.90;;;19.50;99.90;;;;;;4956401;28;20454;-70
2023/08/01 06:22:06;;;;;;;1999.90;999.90;;;19.60;99.90;;;;;;4962332;28;20442;-70
2023/08/01 06:24:32;;;;;;;1999.90;999.90;;;19.60;99.90;;;;;;4961068;28;20437;-70
2023/08/01 06:26:59;;;;;;;1999.90;999.90;;;19.70;99.90;;;;;;4954072;28;20429;-70
2023/08/01 06:29:26;;;;;;;1999.90;999.90;;;19.80;99.90;;;;;;4953880;28;20445;-70
2023/08/01 06:31:54;;;;;;;1999.90;999.90;;;19.90;99.90;;;;;;4957021;28;20450;-71
2023/08/01 06:34:21;;;;;;;1999.90;999.90;;;20.00;99.90;;;;;;4953998;28;20442;-70
2023/08/01 06:36:48;;;;;;;1999.90;999.90;;;20.00;99.90;;;;;;4960871;28;20445;-70
2023/08/01 06:39:14;;;;;;;1999.90;999.90;;;19.80;99.90;;;;;;4957912;28;20439;-70
2023/08/01 06:41:41;;;;;;;1999.90;999.90;;;19.70;99.90;;;;;;4958940;28;20433;-70
2023/08/01 06:44:08;;;;;;;1999.90;999.90;;;19.50;99.90;;;;;;4952769;28;20448;-70
2023/08/01 06:46:35;;;;;;;1999.90;999.90;;;19.40;99.90;;;;;;4957166;28;20950;-70
2023/08/01 06:49:03;;;;;;;1999.90;999.90;;;19.30;99.90;;;;;;4952042;28;20441;-70
2023/08/01 06:51:29;;;;;;;1999.90;999.90;;;19.30;99.90;;;;;;4966392;28;20840;-70
2023/08/01 06:53:56;;;;;;;1999.90;999.90;;;19.20;99.90;;;;;;4966163;28;20440;-70
2023/08/01 06:56:23;;;;;;;1999.90;999.90;;;19.10;99.90;;;;;;4956645;28;20445;-70
2023/08/01 06:58:50;;;;;;;1999.90;999.90;;;18.90;99.90;;;;;;4953738;28;20958;-69
2023/08/01 07:01:16;;;;;;;1999.90;999.90;;;18.70;99.90;;;;;;4954843;28;20457;-70
2023/08/01 07:03:43;;;;;;;1999.90;999.90;;;18.40;99.90;;;;;;4961452;28;20440;-70
2023/08/01 07:06:11;;;;;;;1999.90;999.90;;;18.10;99.90;;;;;;4961472;28;20440;-69
2023/08/01 07:08:38;;;;;;;1999.90;999.90;;;18.00;99.90;;;;;;4958279;28;20441;-71
2023/08/01 07:11:05;;;;;;;1999.90;999.90;;;17.90;99.90;;;;;;4954946;28;20442;-70
2023/08/01 07:13:33;;;;;;;1999.90;999.90;;;17.70;99.90;;;;;;4954683;28;20530;-69
2023/08/01 07:16:00;;;;;;;1999.90;999.90;;;17.40;99.90;;;;;;4958906;28;20790;-70
2023/08/01 07:18:27;;;;;;;1999.90;999.90;;;17.20;99.90;;;;;;4957117;28;20455;-70
2023/08/01 07:21:00;;;;;;;1999.90;999.90;;;17.20;99.90;;;;;;4956346;28;20516;-69
2023/08/01 07:23:29;;;;;;;1999.90;999.90;;;17.10;99.90;;;;;;4950694;28;20440;-70
2023/08/01 07:25:55;;;;;;;1999.90;999.90;;;17.20;99.90;;;;;;4953193;28;20438;-69
2023/08/01 07:28:22;;;;;;;1999.90;999.90;;;17.10;99.90;;;;;;4949657;28;20449;-69
2023/08/01 07:30:49;;;;;;;1999.90;999.90;;;17.10;99.90;;;;;;4954407;28;20440;-70
2023/08/01 07:33:15;;;;;;;1999.90;999.90;;;17.10;99.90;;;;;;4953611;28;20448;-70
2023/08/01 07:35:42;;;;;;;1999.90;999.90;;;17.10;99.90;;;;;;4950094;28;20494;-70
2023/08/01 07:38:09;;;;;;;1999.90;999.90;;;17.20;99.90;;;;;;4960796;28;20441;-70
2023/08/01 07:40:38;;;;;;;1999.90;999.90;;;17.30;99.90;;;;;;4954809;28;20436;-70
2023/08/01 07:43:05;;;;;;;1999.90;999.90;;;17.40;99.90;;;;;;4958639;28;20440;-70
2023/08/01 07:45:34;;;;;;;1999.90;999.90;;;17.50;99.90;;;;;;4952399;28;20444;-70
2023/08/01 07:48:01;;;;;;;1999.90;999.90;;;17.60;99.90;;;;;;4946809;29;20433;-70
2023/08/01 07:50:28;;;;;;;1999.90;999.90;;;17.60;99.90;;;;;;4953132;28;20424;-70
2023/08/01 07:52:55;;;;;;;1999.90;999.90;;;17.50;99.90;;;;;;4953271;29;20429;-70
2023/08/01 07:55:21;;;;;;;1999.90;999.90;;;17.50;99.90;;;;;;4951034;28;20446;-70
2023/08/01 07:57:49;;;;;;;1999.90;999.90;;;17.40;99.90;;;;;;4953135;29;20429;-69
2023/08/01 08:00:17;;;;;;;1999.90;999.90;;;17.50;99.90;;;;;;4953256;28;20422;-70
2023/08/01 08:02:45;;;;;;;1999.90;999.90;;;17.60;99.90;;;;;;4953217;29;20418;-70
2023/08/01 08:05:11;;;;;;;1999.90;999.90;;;17.70;99.90;;;;;;4951507;28;20446;-70
2023/08/01 08:07:39;;;;;;;1999.90;999.90;;;17.90;99.90;;;;;;4952455;29;20813;-70
2023/08/01 08:10:06;;;;;;;1999.90;999.90;;;18.00;99.90;;;;;;4968618;29;20428;-71
2023/08/01 08:12:33;;;;;;;1999.90;999.90;;;18.00;99.90;;;;;;4953183;28;20418;-71
2023/08/01 08:15:01;;;;;;;1999.90;999.90;;;18.10;99.90;;;;;;4952641;28;20445;-70
2023/08/01 08:17:28;;;;;;;1999.90;999.90;;;18.00;99.90;;;;;;4952706;29;20449;-70
2023/08/01 08:19:55;;;;;;;1999.90;999.90;;;17.70;99.90;;;;;;4952355;29;20422;-70
2023/08/01 08:22:21;;;;;;;1999.90;999.90;;;17.60;99.90;;;;;;4952580;28;20886;-70
2023/08/01 08:24:49;;;;;;;1999.90;999.90;;;17.40;99.90;;;;;;4952594;28;20448;-71
2023/08/01 08:27:16;;;;;;;1999.90;999.90;;;17.30;99.90;;;;;;4953086;29;20417;-70
2023/08/01 08:29:43;;;;;;;1999.90;999.90;;;17.20;99.90;;;;;;4952040;28;20441;-71
2023/08/01 08:32:11;;;;;;;1999.90;999.90;;;17.20;99.90;;;;;;4952848;28;20425;-71
2023/08/01 08:34:39;;;;;;;1999.90;999.90;;;17.30;99.90;;;;;;4951647;28;20429;-70
2023/08/01 08:37:06;;;;;;;1999.90;999.90;;;17.50;99.90;;;;;;4951844;28;20437;-71
2023/08/01 08:39:33;;;;;;;1999.90;999.90;;;17.50;99.90;;;;;;4952183;29;20480;-70
2023/08/01 08:42:01;;;;;;;1999.90;999.90;;;17.70;99.90;;;;;;4952110;28;20425;-70
2023/08/01 08:44:29;;;;;;;1999.90;999.90;;;18.20;99.90;;;;;;4952123;29;20418;-70
2023/08/01 08:47:01;;;;;;;1999.90;999.90;;;18.40;99.90;;;;;;4950658;28;20911;-69
2023/08/01 08:49:30;;;;;;;1999.90;999.90;;;18.60;99.90;;;;;;4951757;29;20422;-70
2023/08/01 08:51:57;;;;;;;1999.90;999.90;;;18.70;99.90;;;;;;4952059;28;20429;-70
2023/08/01 08:54:24;;;;;;;1999.90;999.90;;;18.70;99.90;;;;;;4952198;29;20631;-70
2023/08/01 08:56:51;;;;;;;1999.90;999.90;;;18.90;99.90;;;;;;4950990;28;20437;-70
2023/08/01 08:59:19;;;;;;;1999.90;999.90;;;19.20;99.90;;;;;;4949960;28;20453;-70
2023/08/01 09:01:46;;;;;;;1999.90;999.90;;;19.40;99.90;;;;;;4951604;28;20786;-70
2023/08/01 09:04:13;;;;;;;1999.90;999.90;;;19.30;99.90;;;;;;4952023;29;20428;-70
2023/08/01 09:06:49;;;;;;;1999.90;999.90;;;19.20;99.90;;;;;;4952935;28;20782;-71
2023/08/01 09:09:16;;;;;;;1999.90;999.90;;;19.10;99.90;;;;;;4954661;28;20448;-70
2023/08/01 09:11:45;;;;;;;1999.90;999.90;;;19.10;99.90;;;;;;4954432;28;20463;-70
2023/08/01 09:14:13;;;;;;;1999.90;999.90;;;19.10;99.90;;;;;;4955348;29;20426;-70
2023/08/01 09:16:41;;;;;;;1999.90;999.90;;;19.20;99.90;;;;;;4955179;29;20437;-70
2023/08/01 09:19:09;;;;;;;1999.90;999.90;;;19.20;99.90;;;;;;4954447;28;20464;-70
2023/08/01 09:21:37;;;;;;;1999.90;999.90;;;19.20;99.90;;;;;;4954995;28;20413;-69
2023/08/01 09:24:12;;;;;;;1999.90;999.90;;;19.30;99.90;;;;;;4955184;29;20953;-70
2023/08/01 09:26:39;;;;;;;1999.90;999.90;;;19.40;99.90;;;;;;4955240;29;20414;-70
2023/08/01 09:29:06;;;;;;;1999.90;999.90;;;19.60;99.90;;;;;;4953860;28;20445;-71
2023/08/01 09:31:35;;;;;;;1999.90;999.90;;;19.80;99.90;;;;;;4955099;28;20421;-71
2023/08/01 09:34:05;;;;;;;1999.90;999.90;;;20.00;99.90;;;;;;4955357;29;20514;-70
2023/08/01 09:36:31;;;;;;;1999.90;999.90;;;20.10;99.90;;;;;;4955032;29;20988;-70
2023/08/01 09:39:00;;;;;;;1999.90;999.90;;;20.00;99.90;;;;;;4953705;28;20825;-70
2023/08/01 09:41:29;;;;;;;1999.90;999.90;;;20.00;99.90;;;;;;4954763;28;20425;-71
2023/08/01 09:43:56;;;;;;;1999.90;999.90;;;20.20;99.90;;;;;;4955080;29;20417;-70
2023/08/01 09:46:23;;;;;;;1999.90;999.90;;;20.10;99.90;;;;;;4955147;29;20413;-71
2023/08/01 09:48:49;;;;;;;1999.90;999.90;;;20.20;99.90;;;;;;4953681;28;20968;-70
2023/08/01 09:51:17;;;;;;;1999.90;999.90;;;20.00;99.90;;;;;;4954684;28;20425;-71
2023/08/01 09:53:49;;;;;;;1999.90;999.90;;;20.00;99.90;;;;;;4954806;29;20511;-71
2023/08/01 09:56:18;;;;;;;1999.90;999.90;;;20.30;99.90;;;;;;4954568;29;20414;-70
2023/08/01 09:58:47;;;;;;;1999.90;999.90;;;20.70;99.90;;;;;;4953755;28;20442;-71
2023/08/01 10:01:15;;;;;;;1999.90;999.90;;;21.10;99.90;;;;;;4954654;28;20805;-71
2023/08/01 10:03:46;;;;;;;1999.90;999.90;;;21.30;99.90;;;;;;4954591;29;20413;-71
2023/08/01 10:06:17;;;;;;;1999.90;999.90;;;21.20;99.90;;;;;;4954675;29;20425;-71
2023/08/01 10:08:45;;;;;;;1999.90;999.90;;;21.40;99.90;;;;;;4953389;28;20449;-71
2023/08/01 10:11:13;;;;;;;1999.90;999.90;;;21.70;99.90;;;;;;4954697;28;20440;-71
2023/08/01 10:13:41;;;;;;;1999.90;999.90;;;21.70;99.90;;;;;;4954491;29;20422;-71
2023/08/01 10:16:09;;;;;;;1999.90;999.90;;;21.70;99.90;;;;;;4952988;29;20456;-71
2023/08/01 10:18:38;;;;;;;1999.90;999.90;;;21.40;99.90;;;;;;4956775;28;20446;-70
2023/08/01 10:21:05;;;;;;;1999.90;999.90;;;21.30;99.90;;;;;;4985023;23;20510;-66
2023/08/01 10:23:33;;;;;;;1999.90;999.90;;;21.10;99.90;;;;;;4988088;28;20434;-66
2023/08/01 10:26:01;;;;;;;1999.90;999.90;;;21.20;99.90;;;;;;4991223;28;20449;-68
2023/08/01 10:28:35;;;;;;;1999.90;999.90;;;21.30;99.90;;;;;;4989995;28;20518;-67
2023/08/01 10:31:14;;;;;;;1999.90;999.90;;;21.10;99.90;;;;;;4985407;28;20485;-66
2023/08/01 10:33:43;;;;;;;1999.90;999.90;;;21.10;99.90;;;;;;4972353;28;20446;-67
2023/08/01 10:36:14;;;;;;;1999.90;999.90;;;21.10;99.90;;;;;;4972665;28;20474;-67
2023/08/01 10:38:52;;;;;;;1999.90;999.90;;;21.10;99.90;;;;;;4964028;28;20470;-68
2023/08/01 10:41:23;;;;;;;1999.90;999.90;;;21.40;99.90;;;;;;4967643;28;20436;-67
2023/08/01 10:43:50;;;;;;;1999.90;999.90;;;21.40;99.90;;;;;;4980516;28;20442;-67
2023/08/01 10:46:18;;;;;;;1999.90;999.90;;;21.60;99.90;;;;;;4974980;28;20965;-69
2023/08/01 10:48:53;;;;;;;1999.90;999.90;;;21.90;99.90;;;;;;4968779;28;20458;-67
2023/08/01 10:51:20;;;;;;;1999.90;999.90;;;22.10;99.90;;;;;;4963528;28;20437;-67
2023/08/01 10:53:47;;;;;;;1999.90;999.90;;;22.20;99.90;;;;;;4978723;28;20530;-68
2023/08/01 10:56:19;;;;;;;1999.90;999.90;;;22.10;99.90;;;;;;4981592;28;20520;-67
2023/08/01 10:58:46;;;;;;;1999.90;999.90;;;22.00;99.90;;;;;;4977112;28;20853;-68
2023/08/01 11:01:13;;;;;;;1999.90;999.90;;;21.90;99.90;;;;;;4973933;28;20518;-67
2023/08/01 11:03:41;;;;;;;1999.90;999.90;;;21.90;99.90;;;;;;4983533;28;20435;-67
2023/08/01 11:06:08;;;;;;;1999.90;999.90;;;21.90;99.90;;;;;;4983320;28;20920;-67
2023/08/01 11:08:36;;;;;;;1999.90;999.90;;;22.30;99.90;;;;;;4975256;28;20445;-67
2023/08/01 11:11:06;;;;;;;1999.90;999.90;;;22.40;99.90;;;;;;4976054;28;20439;-66
2023/08/01 11:13:35;;;;;;;1999.90;999.90;;;22.60;99.90;;;;;;4970829;28;20443;-68
2023/08/01 11:16:03;;;;;;;1999.90;999.90;;;22.80;99.90;;;;;;4987762;28;20520;-66
2023/08/01 11:18:30;;;;;;;1999.90;999.90;;;22.90;99.90;;;;;;4981165;28;20481;-72
2023/08/01 11:20:58;;;;;;;1999.90;999.90;;;22.70;99.90;;;;;;4977448;28;20518;-68
2023/08/01 11:23:29;;;;;;;1999.90;999.90;;;22.40;99.90;;;;;;4971445;28;20506;-67
2023/08/01 11:25:56;;;;;;;1999.90;999.90;;;22.10;99.90;;;;;;4973596;28;20432;-67
2023/08/01 11:28:24;;;;;;;1999.90;999.90;;;21.80;99.90;;;;;;4982832;28;20434;-66
2023/08/01 11:30:51;;;;;;;1999.90;999.90;;;21.40;99.90;;;;;;4971980;28;20847;-67
2023/08/01 11:33:20;;;;;;;1999.90;999.90;;;21.20;99.90;;;;;;4971314;28;20475;-67
2023/08/01 11:35:47;;;;;;;1999.90;999.90;;;21.10;99.90;;;;;;4971838;28;20774;-68
2023/08/01 11:38:16;;;;;;;1999.90;999.90;;;21.10;99.90;;;;;;4970925;28;20962;-67
2023/08/01 11:40:43;;;;;;;1999.90;999.90;;;21.00;99.90;;;;;;4971856;28;20428;-67
2023/08/01 11:43:10;;;;;;;1999.90;999.90;;;21.10;99.90;;;;;;4972071;28;20412;-68
2023/08/01 11:45:36;;;;;;;1999.90;999.90;;;21.00;99.90;;;;;;4972142;28;20508;-68
2023/08/01 11:48:03;;;;;;;1999.90;999.90;;;21.00;99.90;;;;;;4971013;28;20443;-68
2023/08/01 11:50:30;;;;;;;1999.90;999.90;;;21.20;99.90;;;;;;4969889;28;20443;-67
2023/08/01 11:52:57;;;;;;;1999.90;999.90;;;21.30;99.90;;;;;;4971852;28;20424;-67
2023/08/01 11:55:27;;;;;;;1999.90;999.90;;;21.50;99.90;;;;;;4970449;28;20436;-68
2023/08/01 11:57:55;;;;;;;1999.90;999.90;;;21.50;99.90;;;;;;4971004;28;20447;-67
2023/08/01 12:00:23;;;;;;;1999.90;999.90;;;21.50;99.90;;;;;;4971502;28;20443;-69